createdAt,value
2024-01-20T00:01:25.645Z,-1.71
2024-01-20T00:04:13.735Z,-1.73
2024-01-20T00:07:01.392Z,-1.74
2024-01-20T00:09:51.766Z,-1.76
2024-01-20T00:12:41.865Z,-1.75
2024-01-20T00:15:30.714Z,-1.74
2024-01-20T00:18:18.489Z,-1.76
2024-01-20T00:21:06.731Z,-1.75
2024-01-20T00:23:54.490Z,-1.77
2024-01-20T00:26:44.071Z,-1.74
2024-01-20T00:29:32.083Z,-1.76
2024-01-20T00:32:20.117Z,-1.77
2024-01-20T00:35:08.736Z,-1.79
2024-01-20T00:37:56.983Z,-1.79
2024-01-20T00:40:44.704Z,-1.81
2024-01-20T00:43:33.490Z,-1.81
2024-01-20T00:46:20.835Z,-1.80
2024-01-20T00:49:08.303Z,-1.80
2024-01-20T00:51:55.952Z,-1.84
2024-01-20T00:54:43.624Z,-1.84
2024-01-20T00:57:31.718Z,-1.83
2024-01-20T01:00:22.879Z,-1.85
2024-01-20T01:03:10.693Z,-1.87
2024-01-20T01:05:58.574Z,-1.87
2024-01-20T01:08:46.342Z,-1.91
2024-01-20T01:11:33.937Z,-1.95
2024-01-20T01:14:21.692Z,-2.00
2024-01-20T01:17:10.984Z,-1.98
2024-01-20T01:19:59.246Z,-1.95
2024-01-20T01:22:46.815Z,-1.92
2024-01-20T01:25:34.479Z,-1.94
2024-01-20T01:28:22.180Z,-1.94
2024-01-20T01:31:10.688Z,-1.94
2024-01-20T01:33:59.412Z,-1.93
2024-01-20T01:36:46.893Z,-1.94
2024-01-20T01:39:34.291Z,-1.95
2024-01-20T01:42:22.009Z,-1.94
2024-01-20T01:45:10.990Z,-1.97
2024-01-20T01:47:59.302Z,-2.01
2024-01-20T01:50:49.751Z,-2.03
2024-01-20T01:53:38.480Z,-2.02
2024-01-20T01:56:28.423Z,-2.03
2024-01-20T01:59:17.489Z,-2.04
2024-01-20T02:02:05.128Z,-2.06
2024-01-20T02:04:53.056Z,-2.07
2024-01-20T02:07:44.621Z,-2.07
2024-01-20T02:10:33.263Z,-2.10
2024-01-20T02:13:22.797Z,-2.12
2024-01-20T02:16:10.486Z,-2.14
2024-01-20T02:19:04.385Z,-2.15
2024-01-20T02:21:52.308Z,-2.16
2024-01-20T02:24:48.348Z,-2.16
2024-01-20T02:27:36.063Z,-2.22
2024-01-20T02:30:23.663Z,-2.22
2024-01-20T02:33:11.561Z,-2.22
2024-01-20T02:35:59.186Z,-2.19
2024-01-20T02:38:46.631Z,-2.19
2024-01-20T02:41:35.445Z,-2.28
2024-01-20T02:44:23.826Z,-2.30
2024-01-20T02:47:11.142Z,-2.33
2024-01-20T02:49:58.798Z,-2.35
2024-01-20T02:52:46.612Z,-2.38
2024-01-20T02:55:34.573Z,-2.38
2024-01-20T02:58:23.526Z,-2.40
2024-01-20T03:01:11.331Z,-2.42
2024-01-20T03:03:59.097Z,-2.47
2024-01-20T03:06:47.190Z,-2.49
2024-01-20T03:09:34.967Z,-2.49
2024-01-20T03:12:22.657Z,-2.45
2024-01-20T03:15:12.236Z,-2.42
2024-01-20T03:17:59.908Z,-2.38
2024-01-20T03:20:47.657Z,-2.40
2024-01-20T03:23:35.880Z,-2.42
2024-01-20T03:26:24.377Z,-2.41
2024-01-20T03:29:11.917Z,-2.39
2024-01-20T03:32:00.824Z,-2.39
2024-01-20T03:34:48.619Z,-2.40
2024-01-20T03:37:36.233Z,-2.39
2024-01-20T03:40:24.143Z,-2.38
2024-01-20T03:43:12.091Z,-2.46
2024-01-20T03:46:00.142Z,-2.50
2024-01-20T03:48:49.428Z,-2.62
2024-01-20T03:51:37.107Z,-2.62
2024-01-20T03:54:24.832Z,-2.63
2024-01-20T03:57:13.010Z,-2.62
2024-01-20T04:00:00.682Z,-2.62
2024-01-20T04:02:48.603Z,-2.61
2024-01-20T04:05:38.191Z,-2.61
2024-01-20T04:08:25.962Z,-2.60
2024-01-20T04:11:13.664Z,-2.59
2024-01-20T04:14:01.401Z,-2.59
2024-01-20T04:16:49.757Z,-2.55
2024-01-20T04:19:37.370Z,-2.58
2024-01-20T04:22:26.182Z,-2.60
2024-01-20T04:25:14.994Z,-2.63
2024-01-20T04:28:02.852Z,-2.65
2024-01-20T04:30:51.750Z,-2.64
2024-01-20T04:33:40.675Z,-2.65
2024-01-20T04:36:31.531Z,-2.66
2024-01-20T04:39:20.426Z,-2.68
2024-01-20T04:42:08.700Z,-2.69
2024-01-20T04:44:56.356Z,-2.70
2024-01-20T04:47:43.928Z,-2.71
2024-01-20T04:50:32.097Z,-2.74
2024-01-20T04:53:19.722Z,-2.77
2024-01-20T04:56:08.953Z,-2.79
2024-01-20T04:58:57.715Z,-2.79
2024-01-20T05:01:46.414Z,-2.80
2024-01-20T05:04:34.061Z,-2.79
2024-01-20T05:07:21.596Z,-2.82
2024-01-20T05:10:10.109Z,-2.83
2024-01-20T05:12:59.231Z,-2.82
2024-01-20T05:15:46.851Z,-2.87
2024-01-20T05:18:34.603Z,-2.89
2024-01-20T05:21:23.391Z,-2.89
2024-01-20T05:24:11.359Z,-2.90
2024-01-20T05:26:58.857Z,-2.91
2024-01-20T05:29:47.837Z,-2.93
2024-01-20T05:32:35.613Z,-2.96
2024-01-20T05:35:23.520Z,-2.97
2024-01-20T05:38:11.084Z,-2.97
2024-01-20T05:40:58.672Z,-3.00
2024-01-20T05:43:46.205Z,-3.02
2024-01-20T05:46:35.234Z,-3.03
2024-01-20T05:49:22.928Z,-3.03
2024-01-20T05:52:11.501Z,-3.04
2024-01-20T05:54:59.351Z,-3.08
2024-01-20T05:57:46.913Z,-3.13
2024-01-20T06:00:34.753Z,-3.18
2024-01-20T06:03:26.690Z,-3.17
2024-01-20T06:06:14.805Z,-3.15
2024-01-20T06:09:03.840Z,-3.13
2024-01-20T06:11:51.823Z,-3.12
2024-01-20T06:14:39.918Z,-3.07
2024-01-20T06:17:27.659Z,-3.10
2024-01-20T06:20:17.591Z,-3.09
2024-01-20T06:23:05.608Z,-3.13
2024-01-20T06:25:54.558Z,-3.15
2024-01-20T06:28:44.235Z,-3.17
2024-01-20T06:31:31.934Z,-3.19
2024-01-20T06:34:19.886Z,-3.14
2024-01-20T06:37:09.603Z,-3.09
2024-01-20T06:39:57.455Z,-3.07
2024-01-20T06:42:45.139Z,-3.05
2024-01-20T06:45:34.797Z,-3.06
2024-01-20T06:48:22.790Z,-3.07
2024-01-20T06:51:16.445Z,-3.09
2024-01-20T06:54:06.772Z,-3.10
2024-01-20T06:56:54.256Z,-3.09
2024-01-20T06:59:41.660Z,-3.14
2024-01-20T07:02:31.467Z,-3.24
2024-01-20T07:05:19.448Z,-3.31
2024-01-20T07:08:07.699Z,-3.35
2024-01-20T07:10:56.452Z,-3.33
2024-01-20T07:13:45.033Z,-3.31
2024-01-20T07:16:33.160Z,-3.32
2024-01-20T07:19:20.876Z,-3.37
2024-01-20T07:22:09.483Z,-3.37
2024-01-20T07:24:56.968Z,-3.40
2024-01-20T07:27:45.846Z,-3.42
2024-01-20T07:30:33.740Z,-3.48
2024-01-20T07:33:21.693Z,-3.53
2024-01-20T07:36:09.629Z,-3.55
2024-01-20T07:38:57.252Z,-3.56
2024-01-20T07:41:44.845Z,-3.50
2024-01-20T07:44:35.131Z,-3.52
2024-01-20T07:47:22.858Z,-3.49
2024-01-20T07:50:10.918Z,-3.47
2024-01-20T07:52:58.900Z,-3.35
2024-01-20T07:55:46.332Z,-3.31
2024-01-20T07:58:33.801Z,-3.33
2024-01-20T08:01:23.434Z,-3.28
2024-01-20T08:04:11.624Z,-3.26
2024-01-20T08:06:59.145Z,-3.21
2024-01-20T08:09:47.335Z,-3.18
2024-01-20T08:12:35.206Z,-3.18
2024-01-20T08:15:23.900Z,-3.20
2024-01-20T08:18:13.237Z,-3.15
2024-01-20T08:21:00.798Z,-3.18
2024-01-20T08:23:48.459Z,-3.24
2024-01-20T08:26:36.020Z,-3.34
2024-01-20T08:29:23.591Z,-3.21
2024-01-20T08:32:11.651Z,-3.19
2024-01-20T08:35:00.676Z,-3.20
2024-01-20T08:37:48.325Z,-3.17
2024-01-20T08:40:36.174Z,-3.11
2024-01-20T08:43:23.933Z,-3.06
2024-01-20T08:46:13.282Z,-3.03
2024-01-20T08:49:04.944Z,-2.95
2024-01-20T08:51:55.762Z,-2.87
2024-01-20T08:54:43.918Z,-2.82
2024-01-20T08:57:33.576Z,-2.70
2024-01-20T09:00:22.428Z,-2.61
2024-01-20T09:03:09.987Z,-2.55
2024-01-20T09:05:57.919Z,-2.60
2024-01-20T09:08:46.885Z,-2.65
2024-01-20T09:11:34.942Z,-2.65
2024-01-20T09:14:22.472Z,-2.67
2024-01-20T09:17:10.391Z,-2.72
2024-01-20T09:19:58.180Z,-2.63
2024-01-20T09:22:46.101Z,-2.54
2024-01-20T09:25:35.128Z,-2.54
2024-01-20T09:28:22.600Z,-2.47
2024-01-20T09:31:10.162Z,-2.36
2024-01-20T09:33:57.788Z,-2.26
2024-01-20T09:36:46.454Z,-2.14
2024-01-20T09:39:34.238Z,-1.98
2024-01-20T09:42:23.777Z,-1.90
2024-01-20T09:45:12.547Z,-1.90
2024-01-20T09:48:00.391Z,-1.66
2024-01-20T09:50:50.187Z,-1.57
2024-01-20T09:53:38.105Z,-1.36
2024-01-20T09:56:26.484Z,-1.43
2024-01-20T09:59:17.105Z,-1.34
2024-01-20T10:02:05.775Z,-1.26
2024-01-20T10:05:00.097Z,-0.85
2024-01-20T10:07:47.698Z,-0.76
2024-01-20T10:10:35.750Z,-0.71
2024-01-20T10:13:23.430Z,-0.79
2024-01-20T10:16:12.315Z,-0.93
2024-01-20T10:18:59.805Z,-0.86
2024-01-20T10:21:50.965Z,-0.63
2024-01-20T10:24:48.479Z,-0.54
2024-01-20T10:27:36.413Z,-0.45
2024-01-20T10:30:26.172Z,-0.28
2024-01-20T10:33:15.782Z,-0.24
2024-01-20T10:36:06.264Z,-0.19
2024-01-20T10:38:55.965Z,0.04
2024-01-20T10:41:49.566Z,0.21
2024-01-20T10:44:40.919Z,0.45
2024-01-20T10:47:37.555Z,0.55
2024-01-20T10:50:27.392Z,0.61
2024-01-20T10:53:15.307Z,0.37
2024-01-20T10:56:08.147Z,0.22
2024-01-20T10:59:05.996Z,0.15
2024-01-20T11:01:54.053Z,0.00
2024-01-20T11:04:45.927Z,0.20
2024-01-20T11:07:38.718Z,0.43
2024-01-20T11:10:27.108Z,-0.01
2024-01-20T11:13:17.307Z,0.25
2024-01-20T11:16:05.480Z,0.35
2024-01-20T11:18:53.012Z,0.44
2024-01-20T11:21:41.020Z,0.43
2024-01-20T11:24:48.801Z,0.64
2024-01-20T11:27:47.455Z,0.72
2024-01-20T11:30:37.552Z,0.88
2024-01-20T11:33:26.461Z,0.78
2024-01-20T11:36:15.738Z,1.09
2024-01-20T11:39:07.042Z,1.43
2024-01-20T11:42:04.670Z,1.58
2024-01-20T11:44:53.757Z,1.80
2024-01-20T11:47:42.182Z,1.86
2024-01-20T11:50:30.157Z,1.80
2024-01-20T11:53:18.392Z,1.66
2024-01-20T11:56:06.609Z,1.77
2024-01-20T11:58:55.468Z,1.76
2024-01-20T12:01:43.440Z,1.92
2024-01-20T12:04:31.283Z,1.63
2024-01-20T12:07:19.952Z,1.81
2024-01-20T12:10:08.622Z,1.68
2024-01-20T12:12:56.340Z,1.42
2024-01-20T12:15:45.183Z,1.41
2024-01-20T12:18:34.229Z,1.72
2024-01-20T12:21:21.939Z,1.72
2024-01-20T12:24:11.642Z,1.95
2024-01-20T12:26:59.376Z,2.16
2024-01-20T12:29:47.156Z,2.23
2024-01-20T12:32:36.058Z,2.35
2024-01-20T12:35:23.889Z,2.46
2024-01-20T12:38:11.717Z,2.55
2024-01-20T12:40:59.270Z,2.59
2024-01-20T12:43:49.985Z,2.69
2024-01-20T12:46:37.865Z,2.49
2024-01-20T12:49:27.035Z,2.36
2024-01-20T12:52:14.873Z,2.38
2024-01-20T12:55:05.394Z,2.45
2024-01-20T12:57:53.032Z,2.73
2024-01-20T13:00:40.554Z,3.00
2024-01-20T13:03:29.795Z,3.02
2024-01-20T13:06:19.347Z,3.11
2024-01-20T13:09:10.070Z,3.03
2024-01-20T13:11:57.701Z,3.25
2024-01-20T13:14:45.141Z,3.46
2024-01-20T13:17:32.764Z,3.43
2024-01-20T13:20:20.944Z,3.51
2024-01-20T13:23:12.905Z,3.57
2024-01-20T13:26:01.965Z,3.66
2024-01-20T13:28:50.792Z,3.66
2024-01-20T13:31:38.365Z,3.68
2024-01-20T13:34:27.118Z,3.79
2024-01-20T13:37:15.012Z,3.78
2024-01-20T13:40:06.297Z,3.78
2024-01-20T13:42:54.208Z,3.91
2024-01-20T13:45:43.900Z,4.01
2024-01-20T13:48:31.763Z,4.06
2024-01-20T13:51:20.510Z,4.16
2024-01-20T13:54:08.700Z,4.23
2024-01-20T13:56:58.244Z,4.15
2024-01-20T13:59:45.695Z,4.11
2024-01-20T14:02:33.354Z,3.75
2024-01-20T14:05:21.076Z,3.54
2024-01-20T14:08:08.638Z,3.52
2024-01-20T14:10:56.115Z,3.66
2024-01-20T14:13:45.201Z,3.79
2024-01-20T14:16:32.900Z,3.89
2024-01-20T14:19:20.927Z,3.86
2024-01-20T14:22:11.837Z,3.74
2024-01-20T14:25:02.130Z,3.66
2024-01-20T14:27:50.680Z,3.33
2024-01-20T14:30:42.065Z,3.15
2024-01-20T14:33:30.664Z,3.02
2024-01-20T14:36:18.439Z,2.89
2024-01-20T14:39:06.157Z,2.72
2024-01-20T14:41:54.131Z,2.41
2024-01-20T14:44:42.441Z,2.24
2024-01-20T14:47:31.749Z,2.12
2024-01-20T14:50:20.245Z,2.07
2024-01-20T14:53:08.033Z,2.06
2024-01-20T14:55:55.565Z,2.02
2024-01-20T14:58:43.172Z,1.98
2024-01-20T15:01:31.118Z,1.95
2024-01-20T15:04:20.347Z,1.91
2024-01-20T15:07:08.207Z,1.82
2024-01-20T15:09:55.943Z,1.74
2024-01-20T15:12:43.689Z,1.60
2024-01-20T15:15:31.296Z,1.50
2024-01-20T15:18:18.989Z,1.39
2024-01-20T15:21:08.393Z,1.26
2024-01-20T15:23:55.769Z,1.13
2024-01-20T15:26:43.229Z,1.01
2024-01-20T15:29:32.116Z,0.89
2024-01-20T15:32:19.879Z,0.78
2024-01-20T15:35:08.771Z,0.65
2024-01-20T15:37:57.756Z,0.54
2024-01-20T15:40:45.977Z,0.42
2024-01-20T15:43:33.741Z,0.30
2024-01-20T15:46:21.318Z,0.19
2024-01-20T15:49:08.996Z,0.09
2024-01-20T15:51:56.713Z,-0.04
2024-01-20T15:54:49.014Z,-0.17
2024-01-20T15:57:37.359Z,-0.28
2024-01-20T16:00:25.873Z,-0.41
2024-01-20T16:03:13.513Z,-0.54
2024-01-20T16:06:01.852Z,-0.65
2024-01-20T16:08:57.586Z,-0.75
2024-01-20T16:11:51.550Z,-0.87
2024-01-20T16:14:39.073Z,-0.99
2024-01-20T16:17:26.555Z,-1.08
2024-01-20T16:20:14.967Z,-1.16
2024-01-20T16:23:02.656Z,-1.25
2024-01-20T16:25:50.362Z,-1.37
2024-01-20T16:28:39.132Z,-1.50
2024-01-20T16:31:27.038Z,-1.57
2024-01-20T16:34:15.555Z,-1.65
2024-01-20T16:37:03.315Z,-1.74
2024-01-20T16:39:51.736Z,-1.87
2024-01-20T16:42:39.520Z,-1.97
2024-01-20T16:45:28.714Z,-2.05
2024-01-20T16:48:16.362Z,-2.11
2024-01-20T16:51:12.666Z,-2.18
2024-01-20T16:54:06.741Z,-2.29
2024-01-20T16:56:54.653Z,-2.38
2024-01-20T16:59:42.465Z,-2.45
2024-01-20T17:02:31.553Z,-2.50
2024-01-20T17:05:19.518Z,-2.55
2024-01-20T17:08:08.082Z,-2.60
2024-01-20T17:10:56.170Z,-2.64
2024-01-20T17:13:44.893Z,-2.70
2024-01-20T17:16:37.053Z,-2.78
2024-01-20T17:19:31.797Z,-2.85
2024-01-20T17:22:19.477Z,-2.93
2024-01-20T17:25:09.056Z,-2.99
2024-01-20T17:27:56.596Z,-3.05
2024-01-20T17:30:43.976Z,-3.15
2024-01-20T17:33:31.627Z,-3.23
2024-01-20T17:36:21.053Z,-3.30
2024-01-20T17:39:10.702Z,-3.35
2024-01-20T17:41:58.813Z,-3.41
2024-01-20T17:44:47.430Z,-3.44
2024-01-20T17:47:35.687Z,-3.50
2024-01-20T17:50:23.582Z,-3.55
2024-01-20T17:53:15.081Z,-3.57
2024-01-20T17:56:04.291Z,-3.60
2024-01-20T17:58:51.998Z,-3.62
2024-01-20T18:01:39.492Z,-3.63
2024-01-20T18:04:27.156Z,-3.69
2024-01-20T18:07:15.068Z,-3.74
2024-01-20T18:10:04.147Z,-3.82
2024-01-20T18:12:51.925Z,-3.89
2024-01-20T18:15:39.662Z,-4.00
2024-01-20T18:18:27.658Z,-4.08
2024-01-20T18:21:16.696Z,-4.17
2024-01-20T18:24:05.338Z,-4.23
2024-01-20T18:26:54.232Z,-4.26
2024-01-20T18:29:42.027Z,-4.28
2024-01-20T18:32:29.853Z,-4.32
2024-01-20T18:35:17.710Z,-4.36
2024-01-20T18:38:05.757Z,-4.39
2024-01-20T18:40:53.243Z,-4.44
2024-01-20T18:43:42.142Z,-4.49
2024-01-20T18:46:29.908Z,-4.52
2024-01-20T18:49:17.616Z,-4.57
2024-01-20T18:52:05.771Z,-4.63
2024-01-20T18:54:54.986Z,-4.66
2024-01-20T18:57:42.560Z,-4.71
2024-01-20T19:00:31.569Z,-4.77
2024-01-20T19:03:19.837Z,-4.80
2024-01-20T19:06:08.077Z,-4.84
2024-01-20T19:08:55.924Z,-4.91
2024-01-20T19:11:43.283Z,-4.92
2024-01-20T19:14:31.193Z,-4.95
2024-01-20T19:17:21.170Z,-4.98
2024-01-20T19:20:11.590Z,-5.02
2024-01-20T19:22:59.239Z,-5.05
2024-01-20T19:25:46.599Z,-5.08
2024-01-20T19:28:34.344Z,-5.09
2024-01-20T19:31:22.461Z,-5.13
2024-01-20T19:34:11.760Z,-5.16
2024-01-20T19:36:59.549Z,-5.21
2024-01-20T19:39:47.575Z,-5.23
2024-01-20T19:42:35.425Z,-5.26
2024-01-20T19:45:23.064Z,-5.30
2024-01-20T19:48:11.001Z,-5.34
2024-01-20T19:51:00.207Z,-5.37
2024-01-20T19:53:47.877Z,-5.43
2024-01-20T19:56:35.407Z,-5.44
2024-01-20T19:59:22.969Z,-5.49
2024-01-20T20:02:12.314Z,-5.53
2024-01-20T20:05:00.116Z,-5.54
2024-01-20T20:07:49.112Z,-5.59
2024-01-20T20:10:36.568Z,-5.61
2024-01-20T20:13:25.033Z,-5.64
2024-01-20T20:16:12.677Z,-5.65
2024-01-20T20:19:00.275Z,-5.66
2024-01-20T20:21:47.827Z,-5.68
2024-01-20T20:24:39.245Z,-5.75
2024-01-20T20:27:26.965Z,-5.78
2024-01-20T20:30:15.040Z,-5.84
2024-01-20T20:33:02.983Z,-5.85
2024-01-20T20:35:50.665Z,-5.85
2024-01-20T20:38:38.316Z,-5.87
2024-01-20T20:41:27.297Z,-5.90
2024-01-20T20:44:14.803Z,-5.94
2024-01-20T20:47:02.431Z,-5.98
2024-01-20T20:49:51.491Z,-6.01
2024-01-20T20:52:39.991Z,-6.03
2024-01-20T20:55:28.702Z,-6.06
2024-01-20T20:58:17.482Z,-6.10
2024-01-20T21:01:05.574Z,-6.13
2024-01-20T21:03:53.564Z,-6.17
2024-01-20T21:06:41.933Z,-6.20
2024-01-20T21:09:29.929Z,-6.24
2024-01-20T21:12:17.749Z,-6.27
2024-01-20T21:15:07.479Z,-6.31
2024-01-20T21:17:57.601Z,-6.32
2024-01-20T21:20:48.097Z,-6.34
2024-01-20T21:23:35.668Z,-6.36
2024-01-20T21:26:23.739Z,-6.40
2024-01-20T21:29:11.405Z,-6.42
2024-01-20T21:32:00.424Z,-6.44
2024-01-20T21:34:48.153Z,-6.48
2024-01-20T21:37:35.970Z,-6.53
2024-01-20T21:40:23.863Z,-6.56
2024-01-20T21:43:11.401Z,-6.56
2024-01-20T21:45:59.337Z,-6.57
2024-01-20T21:48:48.409Z,-6.59
2024-01-20T21:51:36.029Z,-6.60
2024-01-20T21:54:23.535Z,-6.63
2024-01-20T21:57:11.122Z,-6.64
2024-01-20T21:59:59.011Z,-6.63
2024-01-20T22:02:46.362Z,-6.65
2024-01-20T22:05:35.204Z,-6.68
2024-01-20T22:08:23.358Z,-6.71
2024-01-20T22:11:11.138Z,-6.76
2024-01-20T22:13:58.831Z,-6.77
2024-01-20T22:16:46.351Z,-6.80
2024-01-20T22:19:34.454Z,-6.84
2024-01-20T22:22:24.373Z,-6.88
2024-01-20T22:25:12.605Z,-6.90
2024-01-20T22:28:00.402Z,-6.91
2024-01-20T22:30:48.260Z,-6.93
2024-01-20T22:33:35.902Z,-6.96
2024-01-20T22:36:23.633Z,-6.98
2024-01-20T22:39:14.426Z,-6.98
2024-01-20T22:42:02.326Z,-6.99
2024-01-20T22:44:50.105Z,-6.99
2024-01-20T22:47:37.971Z,-7.02
2024-01-20T22:50:26.116Z,-7.04
2024-01-20T22:53:13.807Z,-7.06
2024-01-20T22:56:02.762Z,-7.06
2024-01-20T22:58:50.287Z,-7.09
2024-01-20T23:01:38.289Z,-7.12
2024-01-20T23:04:26.612Z,-7.13
2024-01-20T23:07:14.228Z,-7.15
2024-01-20T23:10:01.920Z,-7.19
2024-01-20T23:12:51.109Z,-7.20
2024-01-20T23:15:39.013Z,-7.19
2024-01-20T23:18:27.038Z,-7.21
2024-01-20T23:21:15.119Z,-7.23
2024-01-20T23:24:02.861Z,-7.26
2024-01-20T23:26:51.127Z,-7.30
2024-01-20T23:29:40.274Z,-7.32
2024-01-20T23:32:28.256Z,-7.35
2024-01-20T23:35:15.713Z,-7.40
2024-01-20T23:38:03.722Z,-7.42
2024-01-20T23:40:51.560Z,-7.41
2024-01-20T23:43:38.965Z,-7.42
2024-01-20T23:46:27.801Z,-7.44
2024-01-20T23:49:15.449Z,-7.47
2024-01-20T23:52:03.678Z,-7.48
2024-01-20T23:54:51.281Z,-7.49
2024-01-20T23:57:40.362Z,-7.49
